KBTM/BTM METAR and TAF weather

Enter ICAO airport designator
Station Type Date Time Source
KBTM METAR 2020/09/19 20:53 UTC NOAA

KBTM 192053Z AUTO 00000KT 10SM FEW110 12/08 A3000 RMK AO2 RAB1958E35 SLP122 P0004 60006 T01170078 58009


Station Type Date Time Source
KBTM Decoded METAR 2020/09/19 20:53 UTC NOAA

BERT MOONEY AIRPORT, MT, United States (KBTM) 45-58N 112-30W 1688M
Sep 19, 2020 - 04:53 PM EDT / 2020.09.19 2053 UTC
Wind: Calm:0
Visibility: 10 mile(s):0
Sky conditions: mostly clear
Precipitation last hour: 0.04 inches
Temperature: 53.1 F (11.7 C)
Dew Point: 46.0 F (7.8 C)
Relative Humidity: 76%
Pressure (altimeter): 30 in. Hg (1015 hPa)
Pressure tendency: 0.03 inches (0.9 hPa) lower than three hours ago
ob: KBTM 192053Z AUTO 00000KT 10SM FEW110 12/08 A3000 RMK AO2 RAB1958E35 SLP122 P0004 60006 T01170078 58009
cycle: 21

Station Type Date Time Source
KBTM TAF 2020/09/19 21:58 UTC NOAA

TAF
AMD KBTM 192057Z 1921/2018 31011KT P6SM VCSH BKN100
FM200200 31006KT 6SM HZ BKN100

Example: see airport list